createdAt,value
2018-07-31T22:12:01.620Z,68.09
2018-07-31T22:14:33.889Z,72.06
2018-07-31T22:17:05.749Z,73.07
2018-07-31T22:19:37.629Z,73.89
2018-07-31T22:22:10.015Z,74.06
2018-07-31T22:24:41.796Z,75.79
2018-07-31T22:27:14.021Z,75.75
2018-07-31T22:29:45.712Z,76.93
2018-07-31T22:32:16.527Z,76.24
2018-07-31T22:34:48.538Z,75.23
2018-07-31T22:41:45.626Z,75.07
2018-07-31T22:44:17.673Z,74.44
2018-07-31T22:46:48.579Z,73.61
2018-07-31T22:49:20.656Z,75.47
2018-07-31T22:51:52.629Z,75.84
2018-07-31T22:54:24.675Z,76.38
2018-07-31T22:56:55.582Z,75.20
2018-07-31T22:59:27.630Z,75.37
2018-07-31T23:01:59.677Z,75.64
2018-07-31T23:04:31.619Z,75.74
2018-07-31T23:07:03.607Z,75.44
2018-07-31T23:09:35.637Z,76.51
2018-07-31T23:12:07.597Z,76.48
2018-07-31T23:14:40.008Z,74.91
2018-07-31T23:17:11.676Z,74.91
2018-07-31T23:19:43.583Z,73.80
2018-07-31T23:22:16.751Z,73.81
2018-07-31T23:24:47.490Z,74.04
2018-07-31T23:27:19.381Z,75.13
2018-07-31T23:29:57.782Z,76.77
2018-07-31T23:32:30.019Z,76.87
2018-07-31T23:35:01.682Z,76.70
2018-07-31T23:37:33.529Z,77.84
2018-07-31T23:40:05.731Z,78.32
2018-07-31T23:42:38.015Z,77.76
2018-07-31T23:45:09.626Z,77.95
2018-07-31T23:47:41.616Z,77.64
2018-07-31T23:50:13.637Z,77.35
2018-07-31T23:52:46.015Z,78.51
2018-07-31T23:55:17.892Z,78.85
2018-07-31T23:57:50.017Z,78.72
